Time,TemperatureF,DewpointF,PressureIn,WindDirection,WindDirectionDegrees,WindSpeedMPH,WindSpeedGustMPH,Humidity,HourlyPrecipIn,Conditions,Clouds,dailyrainin,SoftwareType,DateUTC
2013-10-29 00:01:00,53.3,51.9,30.36,SSW,200,6.9,6.9,95,0.00,RA,,0.00,WeatherDisplay:10.37,2013-10-29 04:01:00,
2013-10-29 00:02:00,53.3,51.9,30.36,SSW,201,4.6,4.6,95,0.00,RA,,0.00,WeatherDisplay:10.37,2013-10-29 04:02:00,
2013-10-29 00:03:00,53.3,51.9,30.36,SSW,200,6.9,6.9,95,0.00,RA,,0.00,WeatherDisplay:10.37,2013-10-29 04:03:00,
2013-10-29 00:08:00,53.4,52.0,30.35,SSW,200,3.5,3.5,95,0.00,RA,,0.00,WeatherDisplay:10.37,2013-10-29 04:08:00,
2013-10-29 00:13:00,53.3,51.9,30.35,SSW,200,3.5,3.5,95,0.00,CLR,,0.00,WeatherDisplay:10.37,2013-10-29 04:13:00,
2013-10-29 00:18:00,53.3,51.6,30.35,SSW,200,0.0,0.0,94,0.00,CLR,,0.00,WeatherDisplay:10.37,2013-10-29 04:18:00,
2013-10-29 00:23:00,53.3,51.6,30.35,SSW,200,0.0,0.0,94,0.00,CLR,,0.00,WeatherDisplay:10.37,2013-10-29 04:23:00,
2013-10-29 00:28:00,53.3,51.6,30.35,SSW,200,0.0,0.0,94,0.00,CLR,,0.00,WeatherDisplay:10.37,2013-10-29 04:28:00,
2013-10-29 00:33:00,53.2,51.5,30.35,SSW,200,0.0,0.0,94,0.00,CLR,,0.00,WeatherDisplay:10.37,2013-10-29 04:33:00,
2013-10-29 00:38:00,53.1,51.4,30.35,SSW,200,0.0,0.1,94,0.00,CLR,,0.00,WeatherDisplay:10.37,2013-10-29 04:38:00,
2013-10-29 00:43:00,53.1,51.4,30.35,SSW,200,0.0,0.0,94,0.00,CLR,,0.00,WeatherDisplay:10.37,2013-10-29 04:43:00,
2013-10-29 00:48:00,53.0,51.3,30.35,SSW,200,0.0,0.0,94,0.00,CLR,,0.00,WeatherDisplay:10.37,2013-10-29 04:48:00,
2013-10-29 00:53:00,52.9,51.2,30.35,SSW,200,1.2,0.0,94,0.00,CLR,,0.00,WeatherDisplay:10.37,2013-10-29 04:53:00,
2013-10-29 00:58:00,52.7,51.0,30.34,SSW,200,0.0,0.0,94,0.00,CLR,,0.00,WeatherDisplay:10.37,2013-10-29 04:58:00,
2013-10-29 01:03:00,52.7,51.0,30.34,SSW,200,0.0,0.0,94,0.00,CLR,,0.00,WeatherDisplay:10.37,2013-10-29 05:03:00,
2013-10-29 01:08:00,52.6,50.9,30.34,South,181,2.3,2.3,94,0.00,CLR,,0.00,WeatherDisplay:10.37,2013-10-29 05:08:00,
2013-10-29 01:13:00,52.6,50.9,30.34,South,181,0.0,0.0,94,0.00,CLR,,0.00,WeatherDisplay:10.37,2013-10-29 05:13:00,
2013-10-29 01:18:00,52.6,50.9,30.34,South,181,0.0,0.0,94,0.00,CLR,,0.00,WeatherDisplay:10.37,2013-10-29 05:18:00,
2013-10-29 01:23:00,52.5,50.5,30.34,South,181,0.0,0.0,93,0.00,CLR,,0.00,WeatherDisplay:10.37,2013-10-29 05:23:00,
2013-10-29 01:28:00,52.4,50.4,30.34,South,181,0.0,0.0,93,0.00,CLR,,0.00,WeatherDisplay:10.37,2013-10-29 05:28:00,
2013-10-29 01:33:00,52.3,50.3,30.34,South,181,0.0,0.0,93,0.00,CLR,,0.00,WeatherDisplay:10.37,2013-10-29 05:33:00,
2013-10-29 01:38:00,52.3,50.3,30.34,South,181,0.0,0.3,93,0.00,CLR,,0.00,WeatherDisplay:10.37,2013-10-29 05:38:00,
2013-10-29 01:43:00,52.3,50.3,30.34,South,181,1.2,0.0,93,0.00,CLR,,0.00,WeatherDisplay:10.37,2013-10-29 05:43:00,
2013-10-29 01:48:00,52.3,50.3,30.34,South,181,0.0,0.0,93,0.00,CLR,,0.00,WeatherDisplay:10.37,2013-10-29 05:48:00,
2013-10-29 01:53:00,52.3,50.3,30.34,South,181,0.0,0.0,93,0.00,CLR,,0.00,WeatherDisplay:10.37,2013-10-29 05:53:00,
2013-10-29 01:58:00,52.3,50.3,30.34,South,181,0.0,0.0,93,0.00,CLR,,0.00,WeatherDisplay:10.37,2013-10-29 05:58:00,
2013-10-29 02:03:00,52.2,50.2,30.34,South,181,0.0,0.0,93,0.00,CLR,,0.00,WeatherDisplay:10.37,2013-10-29 06:03:00,
2013-10-29 02:08:00,52.2,50.5,30.34,South,181,0.0,0.0,94,0.00,CLR,,0.00,WeatherDisplay:10.37,2013-10-29 06:08:00,
2013-10-29 02:13:00,52.2,50.5,30.35,South,181,0.0,0.0,94,0.00,CLR,,0.00,WeatherDisplay:10.37,2013-10-29 06:13:00,
2013-10-29 02:18:00,52.1,50.1,30.35,South,181,0.0,0.0,93,0.00,CLR,,0.00,WeatherDisplay:10.37,2013-10-29 06:18:00,
2013-10-29 02:23:00,52.0,50.3,30.35,South,181,0.0,0.0,94,0.00,CLR,,0.00,WeatherDisplay:10.37,2013-10-29 06:23:00,
2013-10-29 02:28:00,52.0,50.3,30.35,South,181,0.0,0.0,94,0.00,CLR,,0.00,WeatherDisplay:10.37,2013-10-29 06:28:00,
2013-10-29 02:33:00,52.0,50.3,30.35,South,181,0.0,0.0,94,0.00,CLR,,0.00,WeatherDisplay:10.37,2013-10-29 06:33:00,
2013-10-29 02:38:00,51.9,50.2,30.35,South,181,0.0,0.0,94,0.00,CLR,,0.00,WeatherDisplay:10.37,2013-10-29 06:38:00,
2013-10-29 02:43:00,51.8,50.1,30.35,South,181,0.0,0.0,94,0.00,CLR,,0.00,WeatherDisplay:10.37,2013-10-29 06:43:00,
2013-10-29 02:48:00,51.8,50.1,30.35,South,181,0.0,0.0,94,0.00,CLR,,0.00,WeatherDisplay:10.37,2013-10-29 06:48:00,
2013-10-29 02:53:00,51.8,50.1,30.35,South,181,0.0,0.0,94,0.00,CLR,,0.00,WeatherDisplay:10.37,2013-10-29 06:53:00,
2013-10-29 02:58:00,51.7,50.0,30.35,South,181,0.0,0.0,94,0.00,CLR,,0.00,WeatherDisplay:10.37,2013-10-29 06:58:00,
2013-10-29 03:03:00,51.7,50.0,30.35,South,181,0.0,0.0,94,0.00,CLR,,0.00,WeatherDisplay:10.37,2013-10-29 07:03:00,
2013-10-29 03:08:00,51.5,49.8,30.35,South,181,0.0,0.0,94,0.00,CLR,,0.00,WeatherDisplay:10.37,2013-10-29 07:08:00,
2013-10-29 03:13:00,51.4,49.7,30.35,South,181,0.0,0.0,94,0.00,CLR,,0.00,WeatherDisplay:10.37,2013-10-29 07:13:00,
2013-10-29 03:18:00,51.3,49.9,30.35,South,181,0.0,0.0,95,0.00,CLR,,0.00,WeatherDisplay:10.37,2013-10-29 07:18:00,
2013-10-29 03:23:00,51.2,49.8,30.35,South,181,0.0,0.0,95,0.00,CLR,,0.00,WeatherDisplay:10.37,2013-10-29 07:23:00,
2013-10-29 03:28:00,51.2,50.1,30.35,South,181,0.0,0.0,96,0.00,,,0.00,WeatherDisplay:10.37,2013-10-29 07:28:00,
2013-10-29 03:33:00,51.2,50.1,30.35,South,181,0.0,0.0,96,0.00,,,0.00,WeatherDisplay:10.37,2013-10-29 07:33:00,
2013-10-29 03:38:00,51.1,50.0,30.35,South,181,0.0,0.0,96,0.00,,,0.00,WeatherDisplay:10.37,2013-10-29 07:38:00,
2013-10-29 03:43:00,51.0,49.9,30.35,South,181,0.0,0.0,96,0.00,,,0.00,WeatherDisplay:10.37,2013-10-29 07:43:00,
2013-10-29 03:48:00,51.0,49.9,30.35,South,181,0.0,0.0,96,0.00,,,0.00,WeatherDisplay:10.37,2013-10-29 07:48:00,
2013-10-29 03:53:00,50.9,49.8,30.35,South,181,0.0,0.0,96,0.00,,,0.00,WeatherDisplay:10.37,2013-10-29 07:53:00,
2013-10-29 03:58:00,50.8,49.7,30.35,South,181,0.0,0.0,96,0.00,,,0.00,WeatherDisplay:10.37,2013-10-29 07:58:00,
2013-10-29 04:03:00,50.7,49.6,30.36,South,181,1.1,0.0,96,0.00,,,0.00,WeatherDisplay:10.37,2013-10-29 08:03:00,
2013-10-29 04:08:00,50.6,49.5,30.36,South,175,0.0,0.0,96,0.00,,,0.00,WeatherDisplay:10.37,2013-10-29 08:08:00,
2013-10-29 04:13:00,50.5,49.4,30.36,South,175,0.0,0.0,96,0.00,,,0.00,WeatherDisplay:10.37,2013-10-29 08:13:00,
2013-10-29 04:18:00,50.5,49.4,30.36,South,175,0.0,0.0,96,0.00,,,0.00,WeatherDisplay:10.37,2013-10-29 08:18:00,
2013-10-29 04:23:00,50.4,49.3,30.37,South,175,0.0,0.0,96,0.00,,,0.00,WeatherDisplay:10.37,2013-10-29 08:23:00,
2013-10-29 04:28:00,50.3,49.2,30.37,South,175,0.0,0.0,96,0.00,,,0.00,WeatherDisplay:10.37,2013-10-29 08:28:00,
2013-10-29 04:33:00,50.1,49.0,30.37,South,175,0.0,0.0,96,0.00,,,0.00,WeatherDisplay:10.37,2013-10-29 08:33:00,
2013-10-29 04:38:00,50.0,48.9,30.36,South,175,0.0,0.0,96,0.00,,,0.00,WeatherDisplay:10.37,2013-10-29 08:38:00,
2013-10-29 04:43:00,49.9,48.8,30.36,South,175,0.0,0.0,96,0.00,,,0.00,WeatherDisplay:10.37,2013-10-29 08:43:00,
2013-10-29 04:48:00,49.8,48.7,30.36,South,175,0.0,0.0,96,0.00,,,0.00,WeatherDisplay:10.37,2013-10-29 08:48:00,
2013-10-29 04:53:00,49.7,48.6,30.36,South,175,0.0,0.0,96,0.00,,,0.00,WeatherDisplay:10.37,2013-10-29 08:53:00,
2013-10-29 04:58:00,49.5,48.4,30.35,South,175,0.0,0.0,96,0.00,,,0.00,WeatherDisplay:10.37,2013-10-29 08:58:00,
2013-10-29 05:03:00,49.4,48.3,30.36,South,175,0.0,0.0,96,0.00,,,0.00,WeatherDisplay:10.37,2013-10-29 09:03:00,
2013-10-29 05:08:00,49.3,48.2,30.36,South,175,0.0,0.0,96,0.00,,,0.00,WeatherDisplay:10.37,2013-10-29 09:08:00,
2013-10-29 05:13:00,49.2,48.1,30.36,South,175,0.0,0.0,96,0.00,,,0.00,WeatherDisplay:10.37,2013-10-29 09:13:00,
2013-10-29 05:18:00,49.2,48.1,30.37,South,175,0.0,0.0,96,0.00,,,0.00,WeatherDisplay:10.37,2013-10-29 09:18:00,
2013-10-29 05:23:00,49.1,48.0,30.36,South,175,0.0,0.0,96,0.00,,,0.00,WeatherDisplay:10.37,2013-10-29 09:23:00,
2013-10-29 05:28:00,49.0,47.9,30.37,South,175,0.0,0.0,96,0.00,,,0.00,WeatherDisplay:10.37,2013-10-29 09:28:00,
2013-10-29 05:33:00,48.9,47.8,30.37,South,175,0.0,0.0,96,0.00,,,0.00,WeatherDisplay:10.37,2013-10-29 09:33:00,
2013-10-29 05:38:00,48.8,47.7,30.37,South,175,0.0,0.0,96,0.00,,,0.00,WeatherDisplay:10.37,2013-10-29 09:38:00,
2013-10-29 05:43:00,48.7,47.6,30.37,South,175,0.0,0.0,96,0.00,,,0.00,WeatherDisplay:10.37,2013-10-29 09:43:00,
2013-10-29 05:48:00,48.6,47.5,30.37,South,175,0.0,0.0,96,0.00,,,0.00,WeatherDisplay:10.37,2013-10-29 09:48:00,
2013-10-29 05:53:00,48.5,47.7,30.38,South,175,0.0,0.0,97,0.00,,,0.00,WeatherDisplay:10.37,2013-10-29 09:53:00,
2013-10-29 05:58:00,48.4,47.6,30.38,South,175,0.0,0.0,97,0.00,,,0.00,WeatherDisplay:10.37,2013-10-29 09:58:00,
2013-10-29 06:03:00,48.3,47.2,30.38,South,175,0.0,0.0,96,0.00,,,0.00,WeatherDisplay:10.37,2013-10-29 10:03:00,
2013-10-29 06:08:00,48.2,47.4,30.38,South,175,0.0,0.0,97,0.00,,,0.00,WeatherDisplay:10.37,2013-10-29 10:08:00,
2013-10-29 06:13:00,48.0,47.2,30.38,South,175,0.0,0.0,97,0.00,,,0.00,WeatherDisplay:10.37,2013-10-29 10:13:00,
2013-10-29 06:18:00,48.0,47.2,30.38,South,175,0.0,0.0,97,0.00,,,0.00,WeatherDisplay:10.37,2013-10-29 10:18:00,
2013-10-29 06:23:00,47.9,47.1,30.39,South,175,0.0,0.0,97,0.00,,,0.00,WeatherDisplay:10.37,2013-10-29 10:23:00,
2013-10-29 06:28:00,47.8,47.0,30.39,South,175,0.0,0.0,97,0.00,,,0.00,WeatherDisplay:10.37,2013-10-29 10:28:00,
2013-10-29 06:33:00,47.8,47.0,30.39,South,175,0.0,0.0,97,0.00,,,0.00,WeatherDisplay:10.37,2013-10-29 10:33:00,
2013-10-29 06:38:00,47.8,47.0,30.39,South,175,0.0,0.0,97,0.00,,,0.00,WeatherDisplay:10.37,2013-10-29 10:38:00,
2013-10-29 06:43:00,47.8,47.0,30.40,South,175,0.0,0.0,97,0.00,,,0.00,WeatherDisplay:10.37,2013-10-29 10:43:00,
2013-10-29 06:48:00,47.7,46.9,30.40,South,175,0.0,0.0,97,0.00,,,0.00,WeatherDisplay:10.37,2013-10-29 10:48:00,
2013-10-29 06:53:00,47.6,46.8,30.40,South,175,0.0,0.0,97,0.00,,,0.00,WeatherDisplay:10.37,2013-10-29 10:53:00,
2013-10-29 06:58:00,47.6,46.8,30.40,South,175,0.0,0.0,97,0.00,,,0.00,WeatherDisplay:10.37,2013-10-29 10:58:00,
2013-10-29 07:03:00,47.6,46.8,30.40,South,175,0.0,0.0,97,0.00,,,0.00,WeatherDisplay:10.37,2013-10-29 11:03:00,
2013-10-29 07:08:00,47.6,47.1,30.40,South,175,0.0,0.0,98,0.00,,,0.00,WeatherDisplay:10.37,2013-10-29 11:08:00,
2013-10-29 07:13:00,47.6,46.8,30.40,South,175,0.0,0.0,97,0.00,,,0.00,WeatherDisplay:10.37,2013-10-29 11:13:00,
2013-10-29 07:18:00,47.6,47.1,30.40,South,175,0.0,0.0,98,0.00,,,0.00,WeatherDisplay:10.37,2013-10-29 11:18:00,
2013-10-29 07:23:00,47.6,47.1,30.40,South,175,0.0,0.0,98,0.00,,,0.00,WeatherDisplay:10.37,2013-10-29 11:23:00,
2013-10-29 07:28:00,47.4,46.6,30.40,South,175,0.0,0.0,97,0.00,,,0.00,WeatherDisplay:10.37,2013-10-29 11:28:00,
2013-10-29 07:33:00,47.3,46.5,30.40,South,175,0.0,0.0,97,0.00,,,0.00,WeatherDisplay:10.37,2013-10-29 11:33:00,
2013-10-29 07:38:00,47.2,46.4,30.40,South,175,0.0,0.0,97,0.00,,,0.00,WeatherDisplay:10.37,2013-10-29 11:38:00,
2013-10-29 07:43:00,47.1,46.6,30.40,South,175,0.0,0.0,98,0.00,,,0.00,WeatherDisplay:10.37,2013-10-29 11:43:00,
2013-10-29 07:48:00,47.1,46.6,30.40,South,175,0.0,0.0,98,0.00,,,0.00,WeatherDisplay:10.37,2013-10-29 11:48:00,
2013-10-29 07:53:00,47.1,46.6,30.40,South,175,0.0,0.0,98,0.00,,,0.00,WeatherDisplay:10.37,2013-10-29 11:53:00,
2013-10-29 07:58:00,47.1,46.6,30.41,South,175,0.0,0.0,98,0.00,,,0.00,WeatherDisplay:10.37,2013-10-29 11:58:00,
2013-10-29 08:03:00,47.1,46.6,30.41,South,175,0.0,0.0,98,0.00,,,0.00,WeatherDisplay:10.37,2013-10-29 12:03:00,
2013-10-29 08:08:00,47.0,46.5,30.41,South,175,0.0,0.0,98,0.00,,,0.00,WeatherDisplay:10.37,2013-10-29 12:08:00,
2013-10-29 08:13:00,46.9,46.4,30.41,South,175,0.0,0.0,98,0.00,,,0.00,WeatherDisplay:10.37,2013-10-29 12:13:00,
2013-10-29 08:18:00,46.9,46.4,30.41,South,175,0.0,0.0,98,0.00,,,0.00,WeatherDisplay:10.37,2013-10-29 12:18:00,
2013-10-29 08:24:00,46.8,46.3,30.42,South,175,0.0,0.0,98,0.00,,,0.00,WeatherDisplay:10.37,2013-10-29 12:24:00,
2013-10-29 08:29:00,46.8,46.3,30.41,South,175,0.0,0.0,98,0.00,,,0.00,WeatherDisplay:10.37,2013-10-29 12:29:00,
2013-10-29 08:34:00,46.7,46.2,30.41,South,175,0.0,0.0,98,0.00,,,0.00,WeatherDisplay:10.37,2013-10-29 12:34:00,
2013-10-29 08:39:00,46.6,46.1,30.41,South,175,0.0,0.0,98,0.00,,,0.00,WeatherDisplay:10.37,2013-10-29 12:39:00,
2013-10-29 08:44:00,46.6,46.1,30.41,South,175,0.0,0.0,98,0.00,,,0.00,WeatherDisplay:10.37,2013-10-29 12:44:00,
2013-10-29 08:49:00,46.5,46.0,30.41,South,175,0.0,0.0,98,0.00,,,0.00,WeatherDisplay:10.37,2013-10-29 12:49:00,
2013-10-29 08:54:00,46.4,45.6,30.41,South,175,0.0,0.0,97,0.00,,,0.00,WeatherDisplay:10.37,2013-10-29 12:54:00,
2013-10-29 08:59:00,46.3,45.8,30.42,South,175,0.0,0.0,98,0.00,,,0.00,WeatherDisplay:10.37,2013-10-29 12:59:00,
2013-10-29 09:04:00,46.3,45.8,30.42,South,175,0.0,0.0,98,0.00,,,0.00,WeatherDisplay:10.37,2013-10-29 13:04:00,
2013-10-29 09:09:00,46.2,45.7,30.42,South,175,0.0,0.0,98,0.00,,,0.00,WeatherDisplay:10.37,2013-10-29 13:09:00,
2013-10-29 09:14:00,46.2,45.7,30.42,South,175,0.0,0.0,98,0.00,,,0.00,WeatherDisplay:10.37,2013-10-29 13:14:00,
2013-10-29 09:19:00,46.2,45.7,30.42,South,175,0.0,0.0,98,0.00,,,0.00,WeatherDisplay:10.37,2013-10-29 13:19:00,
2013-10-29 09:24:00,46.3,45.8,30.42,South,175,0.0,0.0,98,0.00,,,0.00,WeatherDisplay:10.37,2013-10-29 13:24:00,
2013-10-29 09:29:00,46.3,45.8,30.42,South,175,0.0,0.0,98,0.00,,,0.00,WeatherDisplay:10.37,2013-10-29 13:29:00,
2013-10-29 09:34:00,46.3,45.8,30.42,South,175,0.0,0.0,98,0.00,,,0.00,WeatherDisplay:10.37,2013-10-29 13:34:00,
2013-10-29 09:39:00,46.3,45.8,30.42,South,175,0.0,0.0,98,0.00,,,0.00,WeatherDisplay:10.37,2013-10-29 13:39:00,
2013-10-29 09:44:00,46.2,45.7,30.42,South,175,0.0,0.0,98,0.00,,,0.00,WeatherDisplay:10.37,2013-10-29 13:44:00,
2013-10-29 09:49:00,46.2,45.7,30.42,South,175,0.0,0.0,98,0.00,,,0.00,WeatherDisplay:10.37,2013-10-29 13:49:00,
2013-10-29 09:54:00,46.3,45.8,30.41,South,175,0.0,0.0,98,0.00,,,0.00,WeatherDisplay:10.37,2013-10-29 13:54:00,
2013-10-29 09:59:00,46.4,45.9,30.41,South,175,0.0,0.0,98,0.00,,,0.00,WeatherDisplay:10.37,2013-10-29 13:59:00,
2013-10-29 10:04:00,46.5,46.0,30.41,South,175,1.2,0.0,98,0.00,,,0.00,WeatherDisplay:10.37,2013-10-29 14:04:00,
2013-10-29 10:09:00,46.6,46.1,30.41,South,175,0.0,0.0,98,0.00,,,0.00,WeatherDisplay:10.37,2013-10-29 14:09:00,
2013-10-29 10:14:00,46.8,46.3,30.41,South,175,1.2,0.0,98,0.00,,,0.00,WeatherDisplay:10.37,2013-10-29 14:14:00,
2013-10-29 10:19:00,46.8,46.3,30.41,South,175,0.0,0.0,98,0.00,,,0.00,WeatherDisplay:10.37,2013-10-29 14:19:00,
2013-10-29 10:24:00,46.9,46.4,30.42,South,175,0.0,0.0,98,0.00,,,0.00,WeatherDisplay:10.37,2013-10-29 14:24:00,
2013-10-29 10:29:00,47.1,46.6,30.41,South,175,0.0,0.0,98,0.00,,,0.00,WeatherDisplay:10.37,2013-10-29 14:29:00,
2013-10-29 10:34:00,47.3,46.8,30.41,South,175,0.0,0.0,98,0.00,,,0.00,WeatherDisplay:10.37,2013-10-29 14:34:00,
2013-10-29 10:39:00,47.6,47.3,30.42,South,175,0.0,0.0,99,0.00,,,0.00,WeatherDisplay:10.37,2013-10-29 14:39:00,
2013-10-29 10:44:00,47.7,47.4,30.42,South,175,0.0,0.0,99,0.00,,,0.00,WeatherDisplay:10.37,2013-10-29 14:44:00,
2013-10-29 10:49:00,48.0,47.7,30.42,ESE,106,4.6,4.6,99,0.00,,,0.00,WeatherDisplay:10.37,2013-10-29 14:49:00,
2013-10-29 10:54:00,48.2,47.9,30.43,ESE,106,1.2,0.0,99,0.00,,,0.00,WeatherDisplay:10.37,2013-10-29 14:54:00,
2013-10-29 10:59:00,48.4,48.1,30.43,ESE,106,0.0,0.0,99,0.00,,,0.00,WeatherDisplay:10.37,2013-10-29 14:59:00,
2013-10-29 11:04:00,48.6,48.3,30.43,ESE,106,0.0,0.0,99,0.00,,,0.00,WeatherDisplay:10.37,2013-10-29 15:04:00,
2013-10-29 11:09:00,48.9,48.6,30.43,ESE,106,0.0,0.0,99,0.00,,,0.00,WeatherDisplay:10.37,2013-10-29 15:09:00,
2013-10-29 11:14:00,49.2,48.9,30.43,ESE,106,1.2,0.0,99,0.00,,,0.00,WeatherDisplay:10.37,2013-10-29 15:14:00,
2013-10-29 11:19:00,49.5,49.2,30.43,ESE,106,1.2,0.0,99,0.00,,,0.00,WeatherDisplay:10.37,2013-10-29 15:19:00,
2013-10-29 11:24:00,49.9,49.6,30.43,ESE,106,1.2,1.2,99,0.00,,,0.00,WeatherDisplay:10.37,2013-10-29 15:24:00,
2013-10-29 11:29:00,50.2,49.9,30.43,ESE,106,1.2,0.0,99,0.00,,,0.00,WeatherDisplay:10.37,2013-10-29 15:29:00,
2013-10-29 11:34:00,50.6,50.3,30.44,ESE,106,0.0,0.0,99,0.00,,,0.00,WeatherDisplay:10.37,2013-10-29 15:34:00,
2013-10-29 11:39:00,51.0,50.7,30.43,ESE,106,1.2,0.0,99,0.00,,,0.00,WeatherDisplay:10.37,2013-10-29 15:39:00,
2013-10-29 11:44:00,51.3,51.0,30.43,ESE,106,0.0,0.0,99,0.00,,,0.00,WeatherDisplay:10.37,2013-10-29 15:44:00,
2013-10-29 11:49:00,51.7,51.4,30.43,ESE,106,0.0,0.0,99,0.00,,,0.00,WeatherDisplay:10.37,2013-10-29 15:49:00,
2013-10-29 11:54:00,52.1,51.8,30.43,ESE,106,0.0,0.0,99,0.00,,,0.00,WeatherDisplay:10.37,2013-10-29 15:54:00,
2013-10-29 11:59:00,52.5,52.2,30.42,ESE,106,0.0,0.0,99,0.00,,,0.00,WeatherDisplay:10.37,2013-10-29 15:59:00,
2013-10-29 12:04:00,52.8,52.3,30.42,ESE,106,0.0,0.0,98,0.00,,,0.00,WeatherDisplay:10.37,2013-10-29 16:04:00,
2013-10-29 12:09:00,53.1,52.6,30.43,ESE,106,0.0,0.0,98,0.00,,,0.00,WeatherDisplay:10.37,2013-10-29 16:09:00,
2013-10-29 12:14:00,53.5,52.4,30.42,ESE,106,0.0,0.0,96,0.00,,,0.00,WeatherDisplay:10.37,2013-10-29 16:14:00,
2013-10-29 12:19:00,53.9,52.5,30.42,ESE,106,0.0,0.0,95,0.00,,,0.00,WeatherDisplay:10.37,2013-10-29 16:19:00,
2013-10-29 12:24:00,54.2,52.5,30.42,ESE,106,0.0,0.0,94,0.00,CLR,,0.00,WeatherDisplay:10.37,2013-10-29 16:24:00,
2013-10-29 12:29:00,54.6,52.6,30.42,ESE,106,0.0,0.0,93,0.00,CLR,,0.00,WeatherDisplay:10.37,2013-10-29 16:29:00,
2013-10-29 12:34:00,54.9,52.6,30.42,ESE,106,0.0,0.0,92,0.00,CLR,,0.00,WeatherDisplay:10.37,2013-10-29 16:34:00,
2013-10-29 12:39:00,55.3,52.7,30.42,ESE,106,0.0,0.0,91,0.00,CLR,,0.00,WeatherDisplay:10.37,2013-10-29 16:39:00,
2013-10-29 12:44:00,55.5,52.3,30.42,ESE,106,0.0,0.0,89,0.00,CLR,,0.00,WeatherDisplay:10.37,2013-10-29 16:44:00,
2013-10-29 12:49:00,55.8,53.5,30.41,ESE,106,0.0,0.0,92,0.00,CLR,,0.00,WeatherDisplay:10.37,2013-10-29 16:49:00,
2013-10-29 12:54:00,56.2,53.0,30.41,SSW,206,5.8,5.8,89,0.00,CLR,,0.00,WeatherDisplay:10.37,2013-10-29 16:54:00,
2013-10-29 12:59:00,56.6,53.1,30.42,SSW,206,0.0,0.0,88,0.00,CLR,,0.00,WeatherDisplay:10.37,2013-10-29 16:59:00,
2013-10-29 13:04:00,57.0,53.5,30.41,SSW,206,0.0,0.0,88,0.00,CLR,,0.00,WeatherDisplay:10.37,2013-10-29 17:04:00,
2013-10-29 13:09:00,57.4,53.6,30.41,SSW,206,0.0,0.0,87,0.00,CLR,,0.00,WeatherDisplay:10.37,2013-10-29 17:09:00,
2013-10-29 13:14:00,57.8,53.6,30.41,SSW,207,0.0,0.0,86,0.00,CLR,,0.00,WeatherDisplay:10.37,2013-10-29 17:14:00,
2013-10-29 13:19:00,58.2,53.1,30.41,WSW,240,6.9,6.9,83,0.00,CLR,,0.00,WeatherDisplay:10.37,2013-10-29 17:19:00,
2013-10-29 13:24:00,58.7,52.5,30.40,SSW,212,1.2,1.2,80,0.00,CLR,,0.00,WeatherDisplay:10.37,2013-10-29 17:24:00,
2013-10-29 13:29:00,59.1,51.2,30.40,WSW,247,8.1,8.1,75,0.00,CLR,,0.00,WeatherDisplay:10.37,2013-10-29 17:29:00,
2013-10-29 13:34:00,59.5,51.2,30.40,SW,215,6.9,6.9,74,0.00,CLR,,0.00,WeatherDisplay:10.37,2013-10-29 17:34:00,
2013-10-29 13:39:00,59.9,51.6,30.40,South,186,9.2,9.2,74,0.00,CLR,,0.00,WeatherDisplay:10.37,2013-10-29 17:39:00,
2013-10-29 13:44:00,60.2,52.6,30.40,SW,232,6.9,6.9,76,0.00,CLR,,0.00,WeatherDisplay:10.37,2013-10-29 17:44:00,
2013-10-29 13:49:00,60.6,52.3,30.39,SW,231,8.1,8.1,74,0.00,CLR,,0.00,WeatherDisplay:10.37,2013-10-29 17:49:00,
2013-10-29 13:54:00,61.1,52.0,30.38,SSE,160,1.2,0.0,72,0.00,CLR,,0.00,WeatherDisplay:10.37,2013-10-29 17:54:00,
2013-10-29 13:59:00,61.6,52.5,30.38,SSE,152,8.1,8.1,72,0.00,CLR,,0.00,WeatherDisplay:10.37,2013-10-29 17:59:00,
2013-10-29 14:04:00,62.1,53.3,30.37,SSW,212,12.7,12.7,73,0.00,CLR,,0.00,WeatherDisplay:10.37,2013-10-29 18:04:00,
2013-10-29 14:09:00,62.6,53.4,30.38,SW,227,1.2,1.2,72,0.00,CLR,,0.00,WeatherDisplay:10.37,2013-10-29 18:09:00,
2013-10-29 14:14:00,62.8,53.6,30.38,SSW,195,7.6,7.6,72,0.00,CLR,,0.00,WeatherDisplay:10.37,2013-10-29 18:14:00,
2013-10-29 14:19:00,62.8,53.3,30.37,SSW,204,6.9,6.9,71,0.00,CLR,,0.00,WeatherDisplay:10.37,2013-10-29 18:19:00,
2013-10-29 14:24:00,62.7,53.2,30.38,SSW,211,8.0,8.0,71,0.00,CLR,,0.00,WeatherDisplay:10.37,2013-10-29 18:24:00,
2013-10-29 14:29:00,62.7,53.5,30.37,WNW,295,8.1,8.1,72,0.00,CLR,,0.00,WeatherDisplay:10.37,2013-10-29 18:29:00,
2013-10-29 14:34:00,62.6,53.1,30.37,WSW,242,6.9,6.9,71,0.00,CLR,,0.00,WeatherDisplay:10.37,2013-10-29 18:34:00,
2013-10-29 14:39:00,62.5,53.0,30.37,South,186,6.9,6.9,71,0.00,CLR,,0.00,WeatherDisplay:10.37,2013-10-29 18:39:00,
2013-10-29 14:44:00,62.5,53.0,30.37,SW,217,1.3,1.3,71,0.00,CLR,,0.00,WeatherDisplay:10.37,2013-10-29 18:44:00,
2013-10-29 14:49:00,62.5,53.0,30.36,SW,217,6.6,6.6,71,0.00,CLR,,0.00,WeatherDisplay:10.37,2013-10-29 18:49:00,
2013-10-29 14:54:00,62.5,53.0,30.36,SSW,196,15.0,15.0,71,0.00,CLR,,0.00,WeatherDisplay:10.37,2013-10-29 18:54:00,
2013-10-29 14:59:00,62.4,53.3,30.36,West,273,3.5,3.5,72,0.00,CLR,,0.00,WeatherDisplay:10.37,2013-10-29 18:59:00,
2013-10-29 15:04:00,62.3,53.2,30.36,SW,227,8.1,8.1,72,0.00,CLR,,0.00,WeatherDisplay:10.37,2013-10-29 19:04:00,
2013-10-29 15:09:00,62.3,53.5,30.36,WSW,237,6.6,6.6,73,0.00,CLR,,0.00,WeatherDisplay:10.37,2013-10-29 19:09:00,
2013-10-29 15:14:00,62.3,53.5,30.36,WSW,247,3.5,3.5,73,0.00,CLR,,0.00,WeatherDisplay:10.37,2013-10-29 19:14:00,
2013-10-29 15:19:00,62.2,53.4,30.35,WSW,239,6.9,6.9,73,0.00,CLR,,0.00,WeatherDisplay:10.37,2013-10-29 19:19:00,
2013-10-29 15:24:00,62.2,53.4,30.36,SSW,202,3.5,3.5,73,0.00,CLR,,0.00,WeatherDisplay:10.37,2013-10-29 19:24:00,
2013-10-29 15:29:00,62.2,53.8,30.36,SW,218,0.0,0.0,74,0.00,CLR,,0.00,WeatherDisplay:10.37,2013-10-29 19:29:00,
2013-10-29 15:34:00,62.3,54.3,30.36,SW,215,0.0,0.0,75,0.00,CLR,,0.00,WeatherDisplay:10.37,2013-10-29 19:34:00,
2013-10-29 15:39:00,62.5,54.5,30.35,SW,235,1.3,1.3,75,0.00,CLR,,0.00,WeatherDisplay:10.37,2013-10-29 19:39:00,
2013-10-29 15:44:00,62.8,54.8,30.35,SSW,201,3.3,3.3,75,0.00,CLR,,0.00,WeatherDisplay:10.37,2013-10-29 19:44:00,
2013-10-29 15:49:00,63.2,54.4,30.35,WSW,240,9.2,9.2,73,0.00,CLR,,0.00,WeatherDisplay:10.37,2013-10-29 19:49:00,
2013-10-29 15:54:00,63.5,53.9,30.35,WNW,282,9.2,9.2,71,0.00,CLR,,0.00,WeatherDisplay:10.37,2013-10-29 19:54:00,
2013-10-29 15:59:00,63.8,53.4,30.35,WSW,237,6.9,6.9,69,0.00,CLR,,0.00,WeatherDisplay:10.37,2013-10-29 19:59:00,
2013-10-29 16:04:00,63.9,53.5,30.35,SSW,210,10.4,10.4,69,0.00,CLR,,0.00,WeatherDisplay:10.37,2013-10-29 20:04:00,
2013-10-29 16:09:00,64.1,54.1,30.35,WSW,252,3.5,3.5,70,0.00,CLR,,0.00,WeatherDisplay:10.37,2013-10-29 20:09:00,
2013-10-29 16:14:00,64.3,54.3,30.35,South,173,6.9,6.9,70,0.00,CLR,,0.00,WeatherDisplay:10.37,2013-10-29 20:14:00,
2013-10-29 16:19:00,64.4,54.0,30.35,SSW,208,2.3,2.3,69,0.00,CLR,,0.00,WeatherDisplay:10.37,2013-10-29 20:19:00,
2013-10-29 16:24:00,64.5,53.7,30.35,WSW,241,0.0,0.1,68,0.00,CLR,,0.00,WeatherDisplay:10.37,2013-10-29 20:24:00,
2013-10-29 16:29:00,64.6,54.6,30.36,SW,236,1.2,1.2,70,0.00,CLR,,0.00,WeatherDisplay:10.37,2013-10-29 20:29:00,
2013-10-29 16:34:00,64.6,54.2,30.36,SW,226,10.4,10.4,69,0.00,CLR,,0.00,WeatherDisplay:10.37,2013-10-29 20:34:00,
2013-10-29 16:39:00,64.6,54.2,30.35,SSW,193,10.4,10.4,69,0.00,CLR,,0.00,WeatherDisplay:10.37,2013-10-29 20:39:00,
2013-10-29 16:44:00,64.4,54.0,30.35,SSW,207,10.4,10.4,69,0.00,CLR,,0.00,WeatherDisplay:10.37,2013-10-29 20:44:00,
2013-10-29 16:49:00,64.3,54.3,30.35,SW,224,1.2,1.2,70,0.00,CLR,,0.00,WeatherDisplay:10.37,2013-10-29 20:49:00,
2013-10-29 16:54:00,64.1,54.1,30.36,SW,218,1.2,1.2,70,0.00,CLR,,0.00,WeatherDisplay:10.37,2013-10-29 20:54:00,
2013-10-29 16:59:00,64.0,54.4,30.36,WSW,241,2.3,2.3,71,0.00,CLR,,0.00,WeatherDisplay:10.37,2013-10-29 20:59:00,
2013-10-29 17:04:00,63.9,54.3,30.36,SSW,196,6.9,6.9,71,0.00,CLR,,0.00,WeatherDisplay:10.37,2013-10-29 21:04:00,
2013-10-29 17:09:00,63.7,54.5,30.36,SSW,198,3.3,3.3,72,0.00,CLR,,0.00,WeatherDisplay:10.37,2013-10-29 21:09:00,
2013-10-29 17:14:00,63.5,54.3,30.35,SW,231,4.0,4.0,72,0.00,CLR,,0.00,WeatherDisplay:10.37,2013-10-29 21:14:00,
2013-10-29 17:19:00,63.3,53.7,30.35,SW,228,1.3,0.0,71,0.00,CLR,,0.00,WeatherDisplay:10.37,2013-10-29 21:19:00,
2013-10-29 17:24:00,63.2,53.6,30.36,WSW,250,6.9,6.9,71,0.00,CLR,,0.00,WeatherDisplay:10.37,2013-10-29 21:24:00,
2013-10-29 17:29:00,63.0,53.8,30.35,SW,229,4.0,4.0,72,0.00,CLR,,0.00,WeatherDisplay:10.37,2013-10-29 21:29:00,
2013-10-29 17:34:00,62.8,54.0,30.35,SW,227,1.3,1.3,73,0.00,CLR,,0.00,WeatherDisplay:10.37,2013-10-29 21:34:00,
2013-10-29 17:39:00,62.7,53.9,30.34,SSW,204,3.5,3.5,73,0.00,CLR,,0.00,WeatherDisplay:10.37,2013-10-29 21:39:00,
2013-10-29 17:44:00,62.6,53.8,30.35,SSW,200,5.8,5.8,73,0.00,CLR,,0.00,WeatherDisplay:10.37,2013-10-29 21:44:00,
2013-10-29 17:49:00,62.4,53.6,30.35,SSW,198,6.9,6.9,73,0.00,CLR,,0.00,WeatherDisplay:10.37,2013-10-29 21:49:00,
2013-10-29 17:54:00,62.3,53.9,30.35,SW,216,0.0,0.1,74,0.00,CLR,,0.00,WeatherDisplay:10.37,2013-10-29 21:54:00,
2013-10-29 17:59:00,62.2,53.8,30.35,SW,216,1.2,1.2,74,0.00,CLR,,0.00,WeatherDisplay:10.37,2013-10-29 21:59:00,
2013-10-29 18:04:00,62.1,53.7,30.35,SW,218,1.2,0.0,74,0.00,CLR,,0.00,WeatherDisplay:10.37,2013-10-29 22:04:00,
2013-10-29 18:09:00,62.0,53.6,30.35,SW,218,0.0,0.0,74,0.00,CLR,,0.00,WeatherDisplay:10.37,2013-10-29 22:09:00,
2013-10-29 18:15:00,61.8,53.8,30.35,SW,227,3.5,3.5,75,0.00,CLR,,0.00,WeatherDisplay:10.37,2013-10-29 22:15:00,
2013-10-29 18:20:00,61.6,53.6,30.36,SW,230,3.5,3.5,75,0.00,CLR,,0.00,WeatherDisplay:10.37,2013-10-29 22:20:00,
2013-10-29 18:25:00,61.6,53.6,30.36,SW,230,0.0,0.1,75,0.00,CLR,,0.00,WeatherDisplay:10.37,2013-10-29 22:25:00,
2013-10-29 18:30:00,61.6,54.0,30.36,South,191,4.6,4.6,76,0.00,CLR,,0.00,WeatherDisplay:10.37,2013-10-29 22:30:00,
2013-10-29 18:35:00,61.6,54.0,30.36,SSW,193,0.0,0.1,76,0.00,CLR,,0.00,WeatherDisplay:10.37,2013-10-29 22:35:00,
2013-10-29 18:40:00,61.4,54.1,30.36,South,191,2.3,2.3,77,0.00,CLR,,0.00,WeatherDisplay:10.37,2013-10-29 22:40:00,
2013-10-29 18:45:00,61.3,54.0,30.36,SSW,200,4.6,4.6,77,0.00,CLR,,0.00,WeatherDisplay:10.37,2013-10-29 22:45:00,
2013-10-29 18:50:00,61.1,53.8,30.36,South,187,5.4,5.4,77,0.00,CLR,,0.00,WeatherDisplay:10.37,2013-10-29 22:50:00,
2013-10-29 18:55:00,61.0,53.7,30.35,SSW,197,4.6,0.0,77,0.00,CLR,,0.00,WeatherDisplay:10.37,2013-10-29 22:55:00,
2013-10-29 19:00:00,60.9,54.0,30.36,South,169,6.9,6.9,78,0.00,CLR,,0.00,WeatherDisplay:10.37,2013-10-29 23:00:00,
2013-10-29 19:05:00,60.8,53.9,30.36,SSW,201,6.9,6.9,78,0.00,CLR,,0.00,WeatherDisplay:10.37,2013-10-29 23:05:00,
2013-10-29 19:10:00,60.7,53.8,30.36,SSW,196,4.4,4.4,78,0.00,CLR,,0.00,WeatherDisplay:10.37,2013-10-29 23:10:00,
2013-10-29 19:15:00,60.6,53.7,30.36,SSW,198,6.9,6.9,78,0.00,CLR,,0.00,WeatherDisplay:10.37,2013-10-29 23:15:00,
2013-10-29 19:20:00,60.5,53.6,30.36,SSW,192,5.4,5.4,78,0.00,CLR,,0.00,WeatherDisplay:10.37,2013-10-29 23:20:00,
2013-10-29 19:25:00,60.5,53.6,30.36,SSW,197,2.3,2.3,78,0.00,CLR,,0.00,WeatherDisplay:10.37,2013-10-29 23:25:00,
2013-10-29 19:30:00,60.4,53.5,30.36,SSW,196,0.0,0.0,78,0.00,CLR,,0.00,WeatherDisplay:10.37,2013-10-29 23:30:00,
2013-10-29 19:35:00,60.4,53.5,30.36,SSW,196,0.0,0.0,78,0.00,CLR,,0.00,WeatherDisplay:10.37,2013-10-29 23:35:00,
2013-10-29 19:40:00,60.4,53.9,30.36,SSW,196,0.0,0.0,79,0.00,CLR,,0.00,WeatherDisplay:10.37,2013-10-29 23:40:00,
2013-10-29 19:45:00,60.3,53.8,30.37,SSW,196,0.0,0.0,79,0.00,CLR,,0.00,WeatherDisplay:10.37,2013-10-29 23:45:00,
2013-10-29 19:50:00,60.3,53.8,30.37,SSW,196,0.0,0.0,79,0.00,CLR,,0.00,WeatherDisplay:10.37,2013-10-29 23:50:00,
2013-10-29 19:55:00,60.2,53.7,30.37,SSW,196,0.0,0.0,79,0.00,CLR,,0.00,WeatherDisplay:10.37,2013-10-29 23:55:00,
2013-10-29 20:00:00,60.1,53.6,30.37,SSW,196,0.0,0.0,79,0.00,CLR,,0.00,WeatherDisplay:10.37,2013-10-30 00:00:00,
2013-10-29 20:05:00,60.0,53.5,30.37,SSW,196,0.0,0.0,79,0.00,CLR,,0.00,WeatherDisplay:10.37,2013-10-30 00:05:00,
2013-10-29 20:10:00,60.0,53.5,30.37,SSW,196,0.0,0.0,79,0.00,CLR,,0.00,WeatherDisplay:10.37,2013-10-30 00:10:00,
2013-10-29 20:15:00,59.9,53.7,30.36,SSW,196,0.0,0.0,80,0.00,CLR,,0.00,WeatherDisplay:10.37,2013-10-30 00:15:00,
2013-10-29 20:20:00,59.7,53.9,30.36,SSW,196,0.0,0.0,81,0.00,CLR,,0.00,WeatherDisplay:10.37,2013-10-30 00:20:00,
2013-10-29 20:25:00,59.4,53.6,30.36,SSW,196,0.0,0.0,81,0.00,CLR,,0.00,WeatherDisplay:10.37,2013-10-30 00:25:00,
2013-10-29 20:30:00,59.3,53.5,30.36,SSW,196,0.0,0.0,81,0.00,CLR,,0.00,WeatherDisplay:10.37,2013-10-30 00:30:00,
2013-10-29 20:35:00,59.1,53.3,30.36,SSW,196,0.0,0.0,81,0.00,CLR,,0.00,WeatherDisplay:10.37,2013-10-30 00:35:00,
2013-10-29 20:40:00,59.0,53.2,30.36,SSW,196,0.0,0.0,81,0.00,CLR,,0.00,WeatherDisplay:10.37,2013-10-30 00:40:00,
2013-10-29 20:45:00,58.8,53.3,30.36,SSW,196,0.0,0.0,82,0.00,CLR,,0.00,WeatherDisplay:10.37,2013-10-30 00:45:00,
2013-10-29 20:50:00,58.7,53.2,30.36,SSW,196,0.0,0.0,82,0.00,CLR,,0.00,WeatherDisplay:10.37,2013-10-30 00:50:00,
2013-10-29 20:55:00,58.4,53.3,30.36,SSW,196,0.0,0.0,83,0.00,CLR,,0.00,WeatherDisplay:10.37,2013-10-30 00:55:00,
2013-10-29 21:00:00,58.2,53.1,30.36,SSW,196,0.0,0.0,83,0.00,CLR,,0.00,WeatherDisplay:10.37,2013-10-30 01:00:00,
2013-10-29 21:05:00,58.0,53.2,30.36,SSW,196,0.0,0.0,84,0.00,CLR,,0.00,WeatherDisplay:10.37,2013-10-30 01:05:00,
2013-10-29 21:10:00,57.8,53.0,30.36,SSW,196,0.0,0.0,84,0.00,CLR,,0.00,WeatherDisplay:10.37,2013-10-30 01:10:00,
2013-10-29 21:15:00,57.7,52.9,30.36,SSW,196,0.0,0.0,84,0.00,CLR,CLR,0.00,WeatherDisplay:10.37,2013-10-30 01:15:00,
2013-10-29 21:20:00,57.5,53.0,30.36,SSW,196,0.0,0.0,85,0.00,CLR,CLR,0.00,WeatherDisplay:10.37,2013-10-30 01:20:00,
2013-10-29 21:25:00,57.4,52.9,30.35,SSW,196,0.0,0.0,85,0.00,CLR,CLR,0.00,WeatherDisplay:10.37,2013-10-30 01:25:00,
2013-10-29 21:30:00,57.2,52.7,30.35,SSW,196,0.0,0.0,85,0.00,CLR,,0.00,WeatherDisplay:10.37,2013-10-30 01:30:00,
2013-10-29 21:35:00,57.1,53.0,30.35,SSW,196,0.0,0.0,86,0.00,CLR,,0.00,WeatherDisplay:10.37,2013-10-30 01:35:00,
2013-10-29 21:40:00,56.9,52.8,30.35,SSW,196,0.0,0.0,86,0.00,CLR,,0.00,WeatherDisplay:10.37,2013-10-30 01:40:00,
2013-10-29 21:45:00,56.7,52.6,30.35,SSW,196,0.0,0.0,86,0.00,CLR,CLR,0.00,WeatherDisplay:10.37,2013-10-30 01:45:00,
2013-10-29 21:50:00,56.5,52.7,30.36,SSW,196,0.0,0.0,87,0.00,CLR,CLR,0.00,WeatherDisplay:10.37,2013-10-30 01:50:00,
2013-10-29 21:55:00,56.3,52.5,30.36,SSW,196,0.0,0.0,87,0.00,CLR,CLR,0.00,WeatherDisplay:10.37,2013-10-30 01:55:00,
2013-10-29 22:00:00,56.1,52.3,30.36,SSW,196,0.0,1.0,87,0.00,CLR,CLR,0.00,WeatherDisplay:10.37,2013-10-30 02:00:00,
2013-10-29 22:05:00,55.9,52.4,30.36,SSW,196,0.0,1.0,88,0.00,CLR,CLR,0.00,WeatherDisplay:10.37,2013-10-30 02:05:00,
2013-10-29 22:10:00,55.8,52.3,30.36,SSW,196,0.0,1.0,88,0.00,CLR,CLR,0.00,WeatherDisplay:10.37,2013-10-30 02:10:00,
2013-10-29 22:15:00,55.7,52.5,30.36,SSW,196,0.0,0.0,89,0.00,CLR,CLR,0.00,WeatherDisplay:10.37,2013-10-30 02:15:00,
2013-10-29 22:20:00,55.6,52.1,30.36,SSW,196,0.0,0.0,88,0.00,CLR,,0.00,WeatherDisplay:10.37,2013-10-30 02:20:00,
2013-10-29 22:25:00,55.5,52.3,30.36,SSW,196,0.0,0.0,89,0.00,CLR,,0.00,WeatherDisplay:10.37,2013-10-30 02:25:00,
2013-10-29 22:30:00,55.4,52.2,30.36,SSW,196,0.0,0.0,89,0.00,CLR,,0.00,WeatherDisplay:10.37,2013-10-30 02:30:00,
2013-10-29 22:35:00,55.4,52.2,30.37,SSW,196,0.0,0.0,89,0.00,CLR,CLR,0.00,WeatherDisplay:10.37,2013-10-30 02:35:00,
2013-10-29 22:40:00,55.3,52.1,30.37,SSW,196,0.0,0.0,89,0.00,CLR,,0.00,WeatherDisplay:10.37,2013-10-30 02:40:00,
2013-10-29 22:45:00,55.2,52.0,30.37,SSW,196,0.0,0.0,89,0.00,CLR,CLR,0.00,WeatherDisplay:10.37,2013-10-30 02:45:00,
2013-10-29 22:50:00,55.1,51.9,30.37,SSW,196,0.0,0.0,89,0.00,CLR,CLR,0.00,WeatherDisplay:10.37,2013-10-30 02:50:00,
2013-10-29 22:55:00,55.0,51.9,30.37,SSW,196,0.0,1.0,89,0.00,CLR,CLR,0.00,WeatherDisplay:10.37,2013-10-30 02:55:00,
2013-10-29 23:00:00,55.0,51.8,30.37,SSW,196,0.0,0.0,89,0.00,CLR,CLR,0.00,WeatherDisplay:10.37,2013-10-30 03:00:00,
2013-10-29 23:05:00,55.0,52.1,30.38,SSW,196,0.0,0.0,90,0.00,CLR,,0.00,WeatherDisplay:10.37,2013-10-30 03:05:00,
2013-10-29 23:10:00,55.0,52.1,30.37,SSW,196,0.0,0.0,90,0.00,CLR,,0.00,WeatherDisplay:10.37,2013-10-30 03:10:00,
2013-10-29 23:15:00,55.0,51.8,30.37,SSW,196,0.0,0.0,89,0.00,CLR,,0.00,WeatherDisplay:10.37,2013-10-30 03:15:00,
2013-10-29 23:20:00,55.0,51.8,30.37,SSW,196,0.0,0.0,89,0.00,CLR,,0.00,WeatherDisplay:10.37,2013-10-30 03:20:00,
2013-10-29 23:25:00,55.0,52.1,30.37,SSW,196,0.0,0.0,90,0.00,CLR,,0.00,WeatherDisplay:10.37,2013-10-30 03:25:00,
2013-10-29 23:30:00,55.0,52.1,30.37,SSW,196,0.0,0.0,90,0.00,CLR,,0.00,WeatherDisplay:10.37,2013-10-30 03:30:00,
2013-10-29 23:35:00,55.0,52.1,30.37,SSW,196,0.0,0.0,90,0.00,CLR,,0.00,WeatherDisplay:10.37,2013-10-30 03:35:00,
2013-10-29 23:40:00,54.8,51.9,30.37,SSW,196,0.0,0.0,90,0.00,CLR,,0.00,WeatherDisplay:10.37,2013-10-30 03:40:00,
2013-10-29 23:45:00,54.7,51.8,30.37,SSW,196,0.0,0.0,90,0.00,CLR,,0.00,WeatherDisplay:10.37,2013-10-30 03:45:00,
2013-10-29 23:50:00,54.6,51.7,30.37,SSW,196,0.0,0.0,90,0.00,CLR,,0.00,WeatherDisplay:10.37,2013-10-30 03:50:00,
2013-10-29 23:55:00,54.5,51.6,30.37,SSW,196,0.0,0.0,90,0.00,CLR,,0.00,WeatherDisplay:10.37,2013-10-30 03:55:00,